Time;durP1;ratioP1;P1;durP2;ratioP2;P2;SDS_P1;SDS_P2;PMS_P1;PMS_P2;Temp;Humidity;BMP_temperature;BMP_pressure;BME280_temperature;BME280_humidity;BME280_pressure;Samples;Min_cycle;Max_cycle;Signal;HPM_P1;HPM_P2
2023/04/01 00:02:20;;;;;;;1.85;0.70;;;11.00;99.90;;;;;;5173298;28;20041;-66
2023/04/01 00:04:53;;;;;;;1.15;0.75;;;11.00;63.60;;;;;;5180845;28;20055;-67
2023/04/01 00:07:27;;;;;;;1.23;0.90;;;11.10;1.00;;;;;;5160331;28;20038;-68
2023/04/01 00:10:03;;;;;;;1.13;0.63;;;11.10;18.00;;;;;;5179357;28;20040;-70
2023/04/01 00:12:35;;;;;;;1.33;0.68;;;11.10;1.00;;;;;;5176997;28;20600;-70
2023/04/01 00:15:13;;;;;;;1.73;0.75;;;11.10;36.60;;;;;;5195179;28;20031;-67
2023/04/01 00:17:51;;;;;;;0.77;0.50;;;11.00;1.00;;;;;;5195105;28;20033;-70
2023/04/01 00:20:25;;;;;;;0.52;0.50;;;11.10;1.00;;;;;;5176274;28;20043;-67
2023/04/01 00:22:59;;;;;;;2.15;1.13;;;11.10;1.00;;;;;;5196192;28;20025;-68
2023/04/01 00:25:35;;;;;;;0.82;0.82;;;11.00;1.00;;;;;;5169310;28;20044;-69
2023/04/01 00:28:06;;;;;;;1.08;0.90;;;11.00;1.00;;;;;;5160587;28;20372;-67
2023/04/01 00:30:38;;;;;;;1.23;0.60;;;11.00;1.00;;;;;;5193378;28;20035;-64
2023/04/01 00:33:12;;;;;;;1.75;0.77;;;11.00;1.00;;;;;;5197595;28;20033;-68
2023/04/01 00:35:44;;;;;;;0.80;0.77;;;11.00;1.00;;;;;;5176817;28;20059;-68
2023/04/01 00:38:21;;;;;;;1.35;0.82;;;10.90;27.50;;;;;;5176579;28;20025;-67
2023/04/01 00:40:59;;;;;;;1.02;0.70;;;10.90;85.50;;;;;;5185627;28;20383;-69
2023/04/01 00:43:36;;;;;;;2.85;0.80;;;10.80;99.90;;;;;;5184492;28;20040;-65
2023/04/01 00:46:08;;;;;;;0.80;0.70;;;10.80;99.90;;;;;;5183350;28;20048;-68
2023/04/01 00:48:45;;;;;;;0.90;0.77;;;10.90;99.90;;;;;;5182081;28;20577;-68
2023/04/01 00:51:27;;;;;;;1.95;0.70;;;10.80;99.90;;;;;;5173985;28;20136;-67
2023/04/01 00:54:03;;;;;;;1.40;0.52;;;10.80;99.90;;;;;;5192989;28;20029;-66
2023/04/01 00:56:40;;;;;;;0.80;0.75;;;10.80;99.90;;;;;;5159927;28;20345;-66
2023/04/01 00:59:33;;;;;;;3.42;0.70;;;10.80;99.90;;;;;;5181199;28;20055;-65
2023/04/01 01:02:10;;;;;;;0.70;0.50;;;10.70;99.90;;;;;;5227144;23;20054;-69
2023/04/01 01:04:43;;;;;;;;;;;10.70;99.90;;;;;;5134559;28;20060;-70
2023/04/01 01:07:45;;;;;;;2.45;0.70;;;10.70;99.90;;;;;;5174255;28;19917;-70
2023/04/01 01:10:29;;;;;;;0.70;0.70;;;10.80;99.90;;;;;;5195320;28;20018;-71
2023/04/01 01:13:18;;;;;;;2.33;0.90;;;10.70;99.90;;;;;;5161494;28;20037;-69
2023/04/01 01:16:01;;;;;;;0.63;0.63;;;10.80;99.90;;;;;;5191861;28;20389;-66
2023/04/01 01:18:38;;;;;;;0.52;0.52;;;10.80;99.90;;;;;;5225131;28;20029;-67
2023/04/01 01:21:30;;;;;;;3.15;0.73;;;10.80;99.90;;;;;;5207348;28;20033;-68
2023/04/01 01:24:29;;;;;;;2.20;0.80;;;10.70;99.90;;;;;;5210421;28;20317;-69
2023/04/01 01:27:01;;;;;;;1.58;0.63;;;10.70;99.90;;;;;;5223696;28;20043;-69
2023/04/01 01:29:49;;;;;;;2.63;0.90;;;10.70;99.90;;;;;;5180041;28;20029;-67
2023/04/01 01:32:51;;;;;;;1.20;1.00;;;10.70;99.90;;;;;;5194046;28;20041;-69
2023/04/01 01:35:46;;;;;;;0.75;0.75;;;10.70;99.90;;;;;;5176846;28;20025;-69
2023/04/01 01:38:20;;;;;;;0.80;0.80;;;10.70;99.90;;;;;;5190372;28;20475;-67
2023/04/01 01:40:57;;;;;;;;;;;10.70;99.90;;;;;;5160541;28;20253;-66
2023/04/01 01:43:36;;;;;;;1.98;0.82;;;10.70;99.90;;;;;;5179480;28;19909;-70
2023/04/01 01:46:15;;;;;;;0.85;0.70;;;10.60;1.00;;;;;;5191439;28;20041;-69
2023/04/01 01:48:50;;;;;;;0.57;0.57;;;10.60;1.00;;;;;;5164323;28;20044;-71
2023/04/01 01:51:22;;;;;;;2.55;0.77;;;10.60;1.00;;;;;;5201404;28;20028;-69
2023/04/01 01:53:57;;;;;;;4.85;0.93;;;10.60;1.00;;;;;;5158922;28;20029;-69
2023/04/01 01:56:29;;;;;;;;;;;10.60;1.00;;;;;;5194046;28;20036;-65
2023/04/01 01:59:11;;;;;;;1.90;0.65;;;10.50;99.90;;;;;;5191900;28;19909;-67
2023/04/01 02:02:07;;;;;;;1.73;1.00;;;10.50;1.00;;;;;;5168638;28;20055;-71
2023/04/01 02:04:42;;;;;;;2.70;1.10;;;10.30;99.90;;;;;;5147663;28;20282;-69
2023/04/01 02:07:25;;;;;;;;;;;10.30;99.90;;;;;;5164104;28;20036;-69
2023/04/01 02:10:02;;;;;;;0.52;0.52;;;10.30;13.20;;;;;;5148767;28;19938;-68
2023/04/01 02:12:35;;;;;;;1.85;0.75;;;10.30;1.00;;;;;;5179158;28;20040;-67
2023/04/01 02:15:14;;;;;;;1.15;0.70;;;10.30;1.00;;;;;;5177286;28;20345;-69
2023/04/01 02:17:51;;;;;;;2.30;1.13;;;10.20;1.00;;;;;;5187643;28;20044;-68
2023/04/01 02:20:31;;;;;;;2.00;0.70;;;10.20;1.00;;;;;;5180292;28;20036;-69
2023/04/01 02:23:07;;;;;;;2.55;0.80;;;10.30;1.00;;;;;;5215616;28;20062;-69
2023/04/01 02:25:41;;;;;;;3.10;0.88;;;10.30;1.00;;;;;;5168211;28;20037;-68
2023/04/01 02:28:15;;;;;;;0.63;0.50;;;10.20;1.00;;;;;;5176031;28;20028;-69
2023/04/01 02:30:49;;;;;;;2.17;1.42;;;10.20;1.00;;;;;;5213717;28;20043;-69
2023/04/01 02:33:23;;;;;;;0.82;0.82;;;10.10;1.00;;;;;;5180362;28;20088;-69
2023/04/01 02:35:55;;;;;;;1.83;1.05;;;10.10;1.00;;;;;;5214352;28;20033;-69
2023/04/01 02:38:26;;;;;;;1.80;0.90;;;10.10;1.00;;;;;;5206112;28;20025;-68
2023/04/01 02:41:06;;;;;;;4.85;1.33;;;10.10;1.00;;;;;;5195099;28;20040;-70
2023/04/01 02:43:37;;;;;;;3.33;1.02;;;10.10;1.00;;;;;;5159646;28;20037;-67
2023/04/01 02:46:14;;;;;;;2.45;1.05;;;10.10;17.80;;;;;;5203768;28;20039;-69
2023/04/01 02:48:47;;;;;;;3.00;0.68;;;10.10;99.90;;;;;;5160643;28;20071;-69
2023/04/01 02:51:25;;;;;;;2.07;1.00;;;10.00;99.90;;;;;;5189640;28;20093;-69
2023/04/01 02:53:56;;;;;;;3.28;1.00;;;10.00;1.00;;;;;;5172115;28;20022;-68
2023/04/01 02:56:30;;;;;;;4.93;0.73;;;9.90;1.00;;;;;;5162367;28;20044;-69
2023/04/01 02:59:01;;;;;;;1.40;0.80;;;9.80;1.00;;;;;;5126751;28;20064;-69
2023/04/01 03:01:38;;;;;;;1.33;0.70;;;9.70;99.90;;;;;;5159305;28;20044;-68
2023/04/01 03:04:09;;;;;;;1.48;0.98;;;9.70;99.90;;;;;;5160641;28;20055;-67
2023/04/01 03:06:42;;;;;;;1.73;0.80;;;9.60;1.00;;;;;;5165363;28;20309;-70
2023/04/01 03:09:19;;;;;;;2.20;0.83;;;9.60;1.00;;;;;;5161411;28;20036;-68
2023/04/01 03:11:58;;;;;;;2.55;0.82;;;9.50;1.00;;;;;;5134306;28;20268;-69
2023/04/01 03:14:31;;;;;;;1.10;0.85;;;9.50;1.00;;;;;;5157345;28;20030;-66
2023/04/01 03:17:02;;;;;;;2.75;1.10;;;9.50;1.00;;;;;;5144332;28;20126;-68
2023/04/01 03:19:36;;;;;;;1.90;0.90;;;9.50;99.90;;;;;;5173500;28;20081;-68
2023/04/01 03:22:12;;;;;;;2.70;0.83;;;9.50;1.00;;;;;;5155138;28;20238;-70
2023/04/01 03:24:45;;;;;;;1.08;0.95;;;9.60;99.90;;;;;;5141070;28;20259;-69
2023/04/01 03:27:23;;;;;;;1.67;1.00;;;9.60;99.90;;;;;;5145615;28;20368;-68
2023/04/01 03:29:54;;;;;;;2.25;1.08;;;9.70;99.90;;;;;;5151414;28;20034;-70
2023/04/01 03:32:27;;;;;;;2.25;0.82;;;9.70;99.90;;;;;;5153914;28;20376;-72
2023/04/01 03:34:58;;;;;;;1.02;0.90;;;9.70;99.90;;;;;;5158078;28;20329;-70
2023/04/01 03:37:33;;;;;;;0.88;0.88;;;9.70;99.90;;;;;;5164636;28;20030;-66
2023/04/01 03:40:05;;;;;;;1.55;0.70;;;9.60;99.90;;;;;;5156573;28;20064;-67
2023/04/01 03:42:36;;;;;;;4.82;1.15;;;9.70;5.00;;;;;;5155543;28;20412;-68
2023/04/01 03:45:11;;;;;;;0.80;0.80;;;9.80;37.60;;;;;;5166365;28;20052;-70
2023/04/01 03:47:45;;;;;;;0.85;0.80;;;9.80;72.30;;;;;;5163988;28;20043;-66
2023/04/01 03:50:19;;;;;;;0.75;0.60;;;9.70;12.50;;;;;;5162032;28;20131;-69
2023/04/01 03:52:53;;;;;;;1.02;0.70;;;9.80;2.90;;;;;;5140327;28;20207;-68
2023/04/01 03:55:27;;;;;;;1.38;0.60;;;9.80;1.00;;;;;;5128769;28;20094;-69
2023/04/01 03:57:58;;;;;;;0.85;0.85;;;9.80;1.00;;;;;;5127639;28;20254;-68
2023/04/01 04:00:30;;;;;;;2.63;1.15;;;9.80;1.00;;;;;;5142360;28;20029;-69
2023/04/01 04:03:05;;;;;;;0.50;0.50;;;9.80;1.00;;;;;;5162831;28;20042;-66
2023/04/01 04:05:51;;;;;;;1.95;0.57;;;9.90;1.00;;;;;;5109482;28;20500;-68
2023/04/01 04:08:27;;;;;;;2.13;0.77;;;10.00;1.00;;;;;;5144769;28;20064;-69
2023/04/01 04:11:03;;;;;;;2.60;0.75;;;10.00;1.00;;;;;;5153042;28;20037;-69
2023/04/01 04:13:39;;;;;;;1.65;0.50;;;9.90;1.00;;;;;;5177777;28;20040;-66
2023/04/01 04:16:11;;;;;;;1.38;0.80;;;10.00;1.00;;;;;;5142122;28;20041;-68
2023/04/01 04:18:42;;;;;;;1.23;1.13;;;9.90;1.00;;;;;;5160266;28;20052;-67
2023/04/01 04:21:15;;;;;;;0.70;0.70;;;10.00;1.00;;;;;;5177084;28;20032;-68
2023/04/01 04:23:50;;;;;;;0.80;0.73;;;10.00;1.00;;;;;;5139442;28;20034;-68
2023/04/01 04:26:27;;;;;;;2.50;0.77;;;9.90;1.00;;;;;;5123687;28;20034;-70
2023/04/01 04:29:04;;;;;;;1.17;0.65;;;9.90;1.00;;;;;;5143461;28;20048;-67
2023/04/01 04:31:36;;;;;;;0.80;0.70;;;10.00;1.00;;;;;;5180109;28;20034;-68
2023/04/01 04:34:07;;;;;;;2.92;0.80;;;9.90;1.00;;;;;;5179831;28;20043;-67
2023/04/01 04:36:38;;;;;;;0.80;0.63;;;9.90;1.00;;;;;;5140197;28;20041;-69
2023/04/01 04:39:09;;;;;;;1.48;1.02;;;9.90;1.00;;;;;;5150610;28;20034;-70
2023/04/01 04:41:43;;;;;;;0.63;0.60;;;9.90;1.00;;;;;;5140197;28;20138;-66
2023/04/01 04:44:20;;;;;;;3.58;1.70;;;9.90;1.00;;;;;;5123695;28;20068;-71
2023/04/01 04:46:51;;;;;;;0.90;0.60;;;9.80;1.00;;;;;;5137872;28;20050;-71
2023/04/01 04:49:26;;;;;;;1.50;0.70;;;9.80;1.00;;;;;;5153826;28;20048;-69
2023/04/01 04:51:57;;;;;;;;;;;9.70;1.00;;;;;;5172381;28;20022;-69
2023/04/01 04:54:32;;;;;;;3.67;0.90;;;9.80;1.00;;;;;;5159928;28;19983;-68
2023/04/01 04:57:03;;;;;;;4.15;1.17;;;9.70;1.00;;;;;;5149382;28;20026;-70
2023/04/01 04:59:34;;;;;;;1.48;0.95;;;9.70;1.00;;;;;;5141456;28;20223;-70
2023/04/01 05:02:06;;;;;;;2.90;1.00;;;9.60;1.00;;;;;;5154253;28;20060;-67
2023/04/01 05:04:40;;;;;;;2.35;0.88;;;9.70;1.00;;;;;;5151339;28;20045;-69
2023/04/01 05:07:14;;;;;;;1.33;1.10;;;9.80;1.00;;;;;;5168678;28;20041;-69
2023/04/01 05:09:49;;;;;;;1.45;1.35;;;9.80;1.00;;;;;;5157931;28;20080;-70
2023/04/01 05:12:21;;;;;;;1.50;1.10;;;9.90;1.00;;;;;;5162483;28;20047;-67
2023/04/01 05:14:52;;;;;;;4.60;1.20;;;10.00;1.00;;;;;;5197242;28;20022;-66
2023/04/01 05:17:23;;;;;;;3.28;0.77;;;10.10;1.00;;;;;;5184330;28;20139;-68
2023/04/01 05:19:54;;;;;;;1.75;0.70;;;10.10;1.00;;;;;;5180803;28;20025;-69
2023/04/01 05:22:26;;;;;;;3.08;1.17;;;10.10;1.00;;;;;;5153881;28;20041;-65
2023/04/01 05:24:57;;;;;;;2.03;0.93;;;10.20;1.00;;;;;;5191581;28;20030;-71
2023/04/01 05:27:28;;;;;;;1.38;0.70;;;10.30;1.00;;;;;;5170736;28;20033;-68
2023/04/01 05:30:00;;;;;;;1.25;0.85;;;10.30;1.00;;;;;;5162427;28;20121;-66
2023/04/01 05:32:31;;;;;;;0.98;0.77;;;10.40;1.00;;;;;;5178605;28;20055;-69
2023/04/01 05:35:05;;;;;;;0.85;0.82;;;10.50;1.00;;;;;;5214493;28;20029;-67
2023/04/01 05:37:37;;;;;;;1.33;0.98;;;10.50;1.00;;;;;;5169708;28;20239;-66
2023/04/01 05:40:09;;;;;;;2.33;0.70;;;10.70;99.90;;;;;;5162125;28;20040;-66
2023/04/01 05:42:43;;;;;;;1.13;0.75;;;10.70;99.90;;;;;;5188944;28;20055;-69
2023/04/01 05:45:15;;;;;;;0.65;0.55;;;10.70;99.90;;;;;;5148616;28;20033;-70
2023/04/01 05:47:49;;;;;;;0.73;0.73;;;10.80;99.90;;;;;;5163340;28;20048;-71
2023/04/01 05:50:20;;;;;;;1.13;0.80;;;10.90;99.90;;;;;;5173474;28;20683;-71
2023/04/01 05:52:55;;;;;;;0.40;0.40;;;10.90;99.90;;;;;;5194538;28;20041;-68
2023/04/01 05:55:26;;;;;;;;;;;11.00;99.90;;;;;;5167067;28;20041;-69
2023/04/01 05:58:00;;;;;;;0.70;0.70;;;11.10;99.90;;;;;;5157126;28;19905;-69
2023/04/01 06:00:32;;;;;;;1.70;1.20;;;11.20;99.90;;;;;;5159063;28;20033;-67
2023/04/01 06:03:03;;;;;;;1.05;0.90;;;11.40;99.90;;;;;;5192159;28;20246;-67
2023/04/01 06:05:42;;;;;;;1.10;0.90;;;11.50;86.40;;;;;;5171812;28;20037;-69
2023/04/01 06:08:18;;;;;;;3.03;1.00;;;11.60;1.00;;;;;;5153790;28;20226;-68
2023/04/01 06:11:06;;;;;;;1.35;0.85;;;11.60;1.00;;;;;;5175241;28;20044;-72
2023/04/01 06:14:05;;;;;;;1.20;1.00;;;11.50;99.90;;;;;;5160870;28;20029;-71
2023/04/01 06:17:03;;;;;;;0.85;0.70;;;11.70;99.90;;;;;;5181742;28;20045;-69
2023/04/01 06:20:16;;;;;;;0.82;0.73;;;11.80;1.00;;;;;;5192721;28;20037;-68
2023/04/01 06:23:05;;;;;;;0.80;0.65;;;11.70;1.00;;;;;;5183591;28;20554;-68
2023/04/01 06:25:52;;;;;;;0.63;0.63;;;11.70;93.70;;;;;;5188920;28;20251;-67
2023/04/01 06:28:39;;;;;;;1.10;1.00;;;11.60;1.70;;;;;;5191021;28;20025;-70
2023/04/01 06:31:25;;;;;;;0.77;0.75;;;11.60;5.60;;;;;;5155196;28;20022;-69
2023/04/01 06:34:06;;;;;;;0.60;0.60;;;11.40;1.00;;;;;;5140836;28;20445;-70
2023/04/01 06:36:58;;;;;;;1.30;1.10;;;11.40;1.00;;;;;;5158384;28;20029;-71
2023/04/01 06:39:48;;;;;;;1.60;0.80;;;11.50;1.00;;;;;;5177281;28;20347;-67
2023/04/01 06:42:46;;;;;;;1.33;0.90;;;11.60;1.00;;;;;;5161202;28;20321;-70
2023/04/01 06:45:21;;;;;;;0.85;0.77;;;11.80;1.00;;;;;;5159707;28;20501;-68
2023/04/01 06:48:20;;;;;;;1.02;0.70;;;11.80;1.00;;;;;;5196377;28;20044;-71
2023/04/01 06:51:13;;;;;;;0.50;0.50;;;11.80;1.00;;;;;;5164058;28;20333;-69
2023/04/01 06:54:16;;;;;;;1.00;1.00;;;11.60;1.00;;;;;;5158639;28;20032;-70
2023/04/01 06:56:58;;;;;;;0.88;0.80;;;11.60;1.00;;;;;;5162653;28;20399;-70
2023/04/01 06:59:33;;;;;;;1.00;0.90;;;11.70;1.00;;;;;;5163844;28;20029;-70
2023/04/01 07:02:10;;;;;;;1.70;1.00;;;11.80;1.00;;;;;;5160582;28;20048;-69
2023/04/01 07:04:48;;;;;;;2.25;0.90;;;11.90;1.00;;;;;;5189877;28;20442;-69
2023/04/01 07:07:43;;;;;;;2.83;0.90;;;12.00;99.90;;;;;;5154789;28;20041;-70
2023/04/01 07:10:42;;;;;;;1.15;1.00;;;12.10;99.90;;;;;;5175490;28;20402;-70
2023/04/01 07:13:44;;;;;;;1.30;0.80;;;11.90;99.90;;;;;;5162320;28;20363;-65
2023/04/01 07:16:44;;;;;;;1.70;1.10;;;12.00;99.90;;;;;;5159402;28;20040;-72
2023/04/01 07:19:30;;;;;;;1.85;1.00;;;12.00;99.90;;;;;;5158301;28;20033;-69
2023/04/01 07:22:33;;;;;;;1.13;0.77;;;12.20;1.00;;;;;;5198400;28;20035;-68
2023/04/01 07:25:20;;;;;;;1.13;0.82;;;12.30;1.00;;;;;;5179047;28;20398;-67
2023/04/01 07:28:06;;;;;;;3.35;1.00;;;12.10;1.00;;;;;;5190745;28;20044;-67
2023/04/01 07:31:03;;;;;;;0.80;0.80;;;12.10;1.00;;;;;;5185827;28;20044;-69
2023/04/01 07:34:00;;;;;;;0.93;0.68;;;12.20;1.00;;;;;;5181154;28;20033;-69
2023/04/01 07:36:40;;;;;;;1.33;1.20;;;12.30;1.00;;;;;;5176228;28;20057;-66
2023/04/01 07:39:17;;;;;;;1.55;0.70;;;12.40;1.00;;;;;;5156260;28;20033;-69
2023/04/01 07:42:10;;;;;;;4.13;1.00;;;12.50;1.00;;;;;;5173743;28;20040;-73
2023/04/01 07:44:47;;;;;;;0.90;0.90;;;12.50;1.00;;;;;;5179383;28;20059;-73
2023/04/01 07:47:36;;;;;;;0.90;0.85;;;12.60;1.00;;;;;;5169036;28;20037;-71
2023/04/01 07:50:16;;;;;;;0.80;0.80;;;12.40;99.90;;;;;;5171367;28;20022;-71
2023/04/01 07:52:50;;;;;;;1.10;0.95;;;12.50;1.00;;;;;;5191618;28;20613;-66
2023/04/01 07:55:37;;;;;;;1.73;1.10;;;12.70;99.90;;;;;;5174667;28;20381;-68
2023/04/01 07:58:22;;;;;;;1.75;1.05;;;12.70;1.00;;;;;;5176298;28;20033;-72
2023/04/01 08:00:53;;;;;;;;;;;12.60;1.00;;;;;;5202978;28;20025;-69
2023/04/01 08:03:33;;;;;;;1.20;0.88;;;12.70;1.00;;;;;;5175750;28;19939;-68
2023/04/01 08:06:13;;;;;;;1.98;0.90;;;12.80;99.90;;;;;;5173192;28;20054;-68
2023/04/01 08:09:10;;;;;;;2.33;1.02;;;12.80;1.00;;;;;;5160268;28;20088;-71
2023/04/01 08:12:00;;;;;;;0.80;0.80;;;13.00;99.90;;;;;;5167643;28;20036;-71
2023/04/01 08:15:26;;;;;;;2.50;0.73;;;13.10;99.90;;;;;;5172291;28;20037;-67
2023/04/01 08:18:19;;;;;;;1.58;0.90;;;13.10;1.00;;;;;;5113874;28;20137;-67
2023/04/01 08:20:58;;;;;;;1.23;1.20;;;13.10;86.00;;;;;;5115359;28;20027;-69
2023/04/01 08:23:40;;;;;;;1.25;1.15;;;13.30;1.00;;;;;;5100284;28;20047;-69
2023/04/01 08:26:36;;;;;;;1.20;1.10;;;13.30;1.00;;;;;;5097825;28;20022;-71
2023/04/01 08:29:21;;;;;;;1.70;1.00;;;13.60;1.00;;;;;;5116945;28;20040;-68
2023/04/01 08:32:12;;;;;;;1.10;1.08;;;13.60;1.00;;;;;;5129938;28;20031;-71
2023/04/01 08:34:50;;;;;;;0.80;0.80;;;13.80;1.00;;;;;;5100512;28;20019;-71
2023/04/01 08:37:30;;;;;;;1.02;0.98;;;13.90;1.00;;;;;;5115926;28;20502;-68
2023/04/01 08:40:36;;;;;;;0.95;0.80;;;14.00;1.00;;;;;;5128816;28;20081;-68
2023/04/01 08:43:25;;;;;;;0.80;0.80;;;13.80;1.00;;;;;;5109691;28;20045;-72
2023/04/01 08:46:19;;;;;;;1.80;0.80;;;13.90;1.00;;;;;;5112832;28;20030;-67
2023/04/01 08:49:14;;;;;;;0.70;0.70;;;14.20;1.00;;;;;;5108348;28;20049;-67
2023/04/01 08:51:48;;;;;;;;;;;13.70;1.00;;;;;;5159237;28;20044;-67
2023/04/01 08:54:34;;;;;;;1.33;0.80;;;13.70;1.00;;;;;;5191673;28;20241;-70
2023/04/01 08:57:29;;;;;;;0.95;0.93;;;13.80;1.00;;;;;;5174340;28;20039;-66
2023/04/01 09:00:20;;;;;;;1.27;0.73;;;13.80;1.00;;;;;;5157062;28;20360;-66
2023/04/01 09:03:13;;;;;;;2.28;0.85;;;14.00;1.00;;;;;;5154963;28;20037;-70
2023/04/01 09:06:09;;;;;;;0.95;0.95;;;14.10;1.00;;;;;;5176686;28;20380;-66
2023/04/01 09:08:52;;;;;;;0.75;0.70;;;14.20;1.00;;;;;;5174959;28;20036;-69
2023/04/01 09:11:48;;;;;;;1.00;0.73;;;14.30;95.10;;;;;;5194484;28;20427;-69
2023/04/01 09:14:42;;;;;;;0.70;0.70;;;14.10;81.30;;;;;;5161312;28;20313;-68
2023/04/01 09:17:50;;;;;;;1.08;0.85;;;14.20;50.00;;;;;;5189673;28;20024;-71
2023/04/01 09:20:59;;;;;;;0.88;0.88;;;14.00;54.60;;;;;;5191965;28;20311;-70
2023/04/01 09:23:48;;;;;;;0.98;0.98;;;14.40;1.00;;;;;;5194001;28;20017;-72
2023/04/01 09:27:00;;;;;;;0.73;0.73;;;14.30;1.00;;;;;;5175028;28;20033;-70
2023/04/01 09:29:58;;;;;;;0.90;0.90;;;14.80;1.00;;;;;;5174650;28;20041;-67
2023/04/01 09:32:41;;;;;;;0.70;0.70;;;15.10;59.90;;;;;;5187325;28;20029;-69
2023/04/01 09:35:23;;;;;;;0.98;0.90;;;14.80;73.20;;;;;;5193648;28;20033;-67
2023/04/01 09:38:14;;;;;;;1.75;0.90;;;14.80;90.00;;;;;;5160825;28;20151;-70
2023/04/01 09:41:02;;;;;;;0.77;0.77;;;14.60;76.30;;;;;;5179106;28;20371;-66
2023/04/01 09:43:42;;;;;;;0.80;0.80;;;14.20;57.00;;;;;;5172561;28;20040;-67
2023/04/01 09:46:31;;;;;;;1.17;0.85;;;14.60;64.00;;;;;;5189616;28;20028;-70
2023/04/01 09:49:16;;;;;;;0.90;0.90;;;14.50;57.30;;;;;;5192335;28;20590;-68
2023/04/01 09:51:54;;;;;;;0.70;0.70;;;14.70;1.00;;;;;;5192163;28;20271;-72
2023/04/01 09:54:55;;;;;;;0.80;0.80;;;15.00;1.00;;;;;;5175726;28;20202;-69
2023/04/01 09:58:05;;;;;;;1.50;0.90;;;15.20;1.00;;;;;;5192304;28;20048;-67
2023/04/01 10:00:51;;;;;;;0.85;0.85;;;15.20;24.10;;;;;;5153443;28;20033;-69
2023/04/01 10:03:44;;;;;;;1.00;1.00;;;15.50;30.40;;;;;;5172456;28;20255;-68
2023/04/01 10:06:36;;;;;;;0.68;0.68;;;15.90;28.90;;;;;;5152135;28;20366;-65
2023/04/01 10:09:57;;;;;;;0.68;0.68;;;15.70;16.40;;;;;;5173418;28;20099;-68
2023/04/01 10:12:50;;;;;;;0.93;0.93;;;16.00;63.30;;;;;;5132945;28;20119;-71
2023/04/01 10:15:43;;;;;;;0.95;0.90;;;16.30;1.00;;;;;;5192462;28;20036;-67
2023/04/01 10:18:31;;;;;;;0.80;0.70;;;15.80;1.00;;;;;;5192779;28;20340;-68
2023/04/01 10:21:17;;;;;;;0.70;0.70;;;15.50;1.00;;;;;;5159105;28;20033;-69
2023/04/01 10:24:26;;;;;;;1.13;1.02;;;15.30;1.00;;;;;;5154218;28;20779;-68
2023/04/01 10:27:24;;;;;;;0.60;0.60;;;15.80;26.80;;;;;;5188842;28;20027;-71
2023/04/01 10:30:27;;;;;;;0.80;0.80;;;16.30;20.10;;;;;;5172711;28;20044;-69
2023/04/01 10:33:25;;;;;;;1.00;1.00;;;15.50;1.00;;;;;;5146312;28;20048;-66
2023/04/01 10:36:11;;;;;;;0.85;0.85;;;15.40;1.00;;;;;;5190552;28;20345;-70
2023/04/01 10:38:42;;;;;;;0.65;0.63;;;15.40;1.00;;;;;;5188970;28;20025;-71
2023/04/01 10:41:24;;;;;;;0.80;0.80;;;15.30;1.00;;;;;;5174944;28;20031;-69
2023/04/01 10:44:16;;;;;;;0.70;0.70;;;15.00;1.00;;;;;;5175077;28;20313;-67
2023/04/01 10:47:09;;;;;;;0.80;0.80;;;14.70;1.00;;;;;;5188097;28;20307;-67
2023/04/01 10:50:07;;;;;;;0.80;0.80;;;14.70;1.00;;;;;;5191573;28;20405;-70
2023/04/01 10:53:03;;;;;;;1.00;1.00;;;14.80;1.00;;;;;;5189967;28;20253;-69
2023/04/01 10:56:09;;;;;;;1.00;1.00;;;14.90;1.00;;;;;;5189433;28;20423;-71
2023/04/01 10:58:53;;;;;;;1.50;0.80;;;15.30;1.00;;;;;;5177351;28;20044;-68
2023/04/01 11:02:01;;;;;;;0.80;0.80;;;17.00;1.00;;;;;;5173943;28;20040;-68
2023/04/01 11:04:50;;;;;;;1.10;1.00;;;17.30;1.00;;;;;;5181785;28;20081;-73
2023/04/01 11:07:59;;;;;;;0.80;0.80;;;16.10;1.00;;;;;;5190282;28;20508;-67
2023/04/01 11:11:01;;;;;;;0.77;0.77;;;15.30;1.00;;;;;;5172615;28;20045;-70
2023/04/01 11:14:04;;;;;;;0.73;0.73;;;15.10;1.00;;;;;;5176934;28;20044;-67
2023/04/01 11:16:38;;;;;;;0.90;0.90;;;15.90;1.00;;;;;;5171946;28;20026;-67
2023/04/01 11:19:18;;;;;;;0.82;0.82;;;16.70;1.00;;;;;;5191916;28;20033;-68
2023/04/01 11:22:14;;;;;;;1.23;0.70;;;17.40;1.00;;;;;;5158112;28;20391;-68
2023/04/01 11:24:57;;;;;;;0.82;0.82;;;17.50;1.00;;;;;;5190963;28;20044;-70
2023/04/01 11:27:56;;;;;;;0.80;0.80;;;16.80;1.00;;;;;;5153829;28;20041;-70
2023/04/01 11:30:53;;;;;;;0.70;0.70;;;16.00;99.90;;;;;;5187434;28;20036;-68
2023/04/01 11:33:49;;;;;;;0.82;0.82;;;15.50;99.90;;;;;;5158742;28;20044;-68
2023/04/01 11:36:30;;;;;;;0.80;0.80;;;15.70;99.90;;;;;;5189836;28;20017;-69
2023/04/01 11:39:24;;;;;;;0.90;0.90;;;15.50;90.80;;;;;;5169275;28;20047;-70
2023/04/01 11:42:29;;;;;;;0.90;0.90;;;15.70;1.00;;;;;;5170498;28;20048;-67
2023/04/01 11:45:28;;;;;;;0.88;0.88;;;15.70;1.00;;;;;;5192084;28;20093;-67
2023/04/01 11:48:37;;;;;;;1.20;0.80;;;16.20;1.00;;;;;;5172893;28;20234;-71
2023/04/01 11:51:20;;;;;;;0.70;0.70;;;16.80;99.90;;;;;;5191789;28;20214;-70
2023/04/01 11:53:54;;;;;;;0.85;0.82;;;16.60;1.00;;;;;;5174617;28;20287;-70
2023/04/01 11:56:56;;;;;;;0.70;0.70;;;16.60;99.90;;;;;;5170914;28;20025;-69
2023/04/01 11:59:49;;;;;;;0.80;0.80;;;17.10;1.00;;;;;;5190663;28;20021;-69
2023/04/01 12:02:42;;;;;;;0.85;0.80;;;16.30;1.00;;;;;;5168149;28;20043;-66
2023/04/01 12:05:24;;;;;;;0.77;0.77;;;16.20;99.90;;;;;;5161005;28;20045;-66
2023/04/01 12:08:04;;;;;;;0.70;0.63;;;15.90;99.90;;;;;;5161217;28;20613;-70
2023/04/01 12:11:03;;;;;;;0.90;0.77;;;16.10;99.90;;;;;;5180528;28;20079;-71
2023/04/01 12:14:01;;;;;;;0.75;0.75;;;16.00;99.90;;;;;;5195807;28;20039;-72
2023/04/01 12:16:46;;;;;;;0.82;0.73;;;16.20;99.90;;;;;;5173191;28;20037;-65
2023/04/01 12:19:29;;;;;;;0.70;0.70;;;15.60;99.90;;;;;;5179307;28;20342;-66
2023/04/01 12:22:37;;;;;;;0.70;0.70;;;15.90;1.00;;;;;;5161426;28;20213;-66
2023/04/01 12:25:23;;;;;;;1.05;0.80;;;16.70;1.00;;;;;;5185470;28;20037;-69
2023/04/01 12:28:20;;;;;;;2.40;1.33;;;16.80;1.00;;;;;;5173733;28;20033;-68
2023/04/01 12:31:12;;;;;;;0.82;0.82;;;16.30;1.00;;;;;;5169964;28;20100;-68
2023/04/01 12:33:55;;;;;;;0.70;0.70;;;15.80;1.00;;;;;;5159277;28;20218;-67
2023/04/01 12:36:50;;;;;;;0.93;0.80;;;16.20;99.90;;;;;;5194237;28;20028;-68
2023/04/01 12:39:21;;;;;;;1.63;0.80;;;17.90;99.90;;;;;;5167574;28;20033;-69
2023/04/01 12:42:14;;;;;;;0.70;0.70;;;18.10;1.00;;;;;;5193779;28;20037;-68
2023/04/01 12:45:28;;;;;;;1.10;1.00;;;17.50;1.00;;;;;;5190922;28;20227;-70
2023/04/01 12:48:16;;;;;;;0.80;0.80;;;16.70;1.00;;;;;;5171450;28;20302;-69
2023/04/01 12:51:20;;;;;;;0.82;0.82;;;17.10;1.00;;;;;;5161029;28;20217;-69
2023/04/01 12:54:04;;;;;;;0.60;0.60;;;17.60;99.90;;;;;;5193229;28;20036;-72
2023/04/01 12:56:56;;;;;;;0.63;0.63;;;17.70;1.00;;;;;;5160568;28;20033;-70
2023/04/01 12:59:34;;;;;;;1.40;0.90;;;18.00;1.00;;;;;;5193448;28;20022;-69
2023/04/01 13:02:24;;;;;;;0.80;0.80;;;17.40;1.00;;;;;;5193940;28;20041;-66
2023/04/01 13:05:32;;;;;;;0.73;0.73;;;17.70;99.90;;;;;;5185579;28;20113;-68
2023/04/01 13:08:15;;;;;;;1.77;0.90;;;17.80;1.00;;;;;;5195542;28;20031;-69
2023/04/01 13:11:09;;;;;;;0.63;0.60;;;17.90;1.00;;;;;;5176108;28;20037;-69
2023/04/01 13:13:47;;;;;;;0.95;0.90;;;18.70;1.00;;;;;;5192707;28;20021;-69
2023/04/01 13:16:32;;;;;;;1.50;0.82;;;19.20;1.00;;;;;;5191178;28;20036;-71
2023/04/01 13:19:35;;;;;;;1.33;0.75;;;19.10;1.00;;;;;;5175812;28;20039;-70
2023/04/01 13:22:21;;;;;;;2.03;1.23;;;19.60;1.00;;;;;;5175324;28;20033;-65
2023/04/01 13:25:01;;;;;;;0.70;0.70;;;20.00;1.00;;;;;;5174869;28;20314;-70
2023/04/01 13:27:41;;;;;;;0.93;0.90;;;20.70;1.00;;;;;;5159334;28;20041;-67
2023/04/01 13:30:24;;;;;;;0.85;0.80;;;21.40;55.60;;;;;;5171561;28;20045;-69
2023/04/01 13:33:04;;;;;;;1.08;0.93;;;20.50;99.90;;;;;;5192527;28;20025;-71
2023/04/01 13:35:57;;;;;;;1.30;0.70;;;20.00;99.90;;;;;;5188742;28;20254;-68
2023/04/01 13:38:59;;;;;;;0.80;0.77;;;19.50;99.90;;;;;;5190334;28;20029;-69
2023/04/01 13:42:07;;;;;;;1.48;0.80;;;19.70;99.90;;;;;;5175615;28;20162;-69
2023/04/01 13:44:56;;;;;;;0.80;0.80;;;20.20;99.90;;;;;;5191097;28;20021;-66
2023/04/01 13:47:32;;;;;;;0.73;0.70;;;19.20;99.90;;;;;;5187901;28;20026;-69
2023/04/01 13:50:25;;;;;;;0.80;0.80;;;18.10;99.90;;;;;;5177610;28;20037;-70
2023/04/01 13:53:15;;;;;;;0.85;0.85;;;18.30;99.90;;;;;;5193364;28;20036;-69
2023/04/01 13:56:19;;;;;;;1.52;0.65;;;19.20;99.90;;;;;;5173453;28;20534;-71
2023/04/01 13:59:17;;;;;;;0.70;0.70;;;20.50;99.90;;;;;;5168356;28;20278;-70
2023/04/01 14:02:16;;;;;;;0.70;0.70;;;20.80;99.90;;;;;;5177473;28;20551;-71
2023/04/01 14:05:17;;;;;;;0.70;0.70;;;20.60;99.90;;;;;;5166848;28;20056;-70
2023/04/01 14:08:50;;;;;;;0.90;0.90;;;18.70;99.90;;;;;;5173950;28;20035;-68
2023/04/01 14:12:00;;;;;;;0.98;0.75;;;17.80;99.90;;;;;;5068424;29;20054;-71
2023/04/01 14:14:52;;;;;;;1.42;1.10;;;17.40;99.90;;;;;;5054842;29;20040;-67
2023/04/01 14:17:23;;;;;;;0.90;0.90;;;17.00;99.90;;;;;;5052297;29;20044;-68
2023/04/01 14:20:24;;;;;;;1.17;1.00;;;16.70;99.90;;;;;;5055147;29;20039;-67
2023/04/01 14:23:07;;;;;;;1.73;1.00;;;16.30;99.90;;;;;;5071805;29;20043;-66
2023/04/01 14:26:26;;;;;;;1.23;1.13;;;17.00;99.90;;;;;;5072062;29;20205;-67